createdAt,value
2017-10-20T00:00:36.585Z,60
2017-10-20T00:01:38.384Z,60
2017-10-20T00:02:40.546Z,60.1
2017-10-20T00:03:42.371Z,60
2017-10-20T00:04:43.844Z,59.9
2017-10-20T00:05:46.009Z,60
2017-10-20T00:06:47.832Z,59.8
2017-10-20T00:07:49.307Z,60
2017-10-20T00:08:51.468Z,59.9
2017-10-20T00:09:53.636Z,59.9
2017-10-20T00:10:54.745Z,60.1
2017-10-20T00:11:56.547Z,60
2017-10-20T00:12:58.370Z,60.1
2017-10-20T00:14:00.190Z,60.1
2017-10-20T00:15:02.031Z,60.1
2017-10-20T00:16:04.194Z,60.2
2017-10-20T00:17:05.670Z,60
2017-10-20T00:18:07.489Z,60
2017-10-20T00:19:08.946Z,60
2017-10-20T00:20:10.769Z,60.1
2017-10-20T00:21:12.932Z,60.2
2017-10-20T00:22:14.729Z,60
2017-10-20T00:23:16.531Z,59.9
2017-10-20T00:24:17.983Z,60.2
2017-10-20T00:25:19.463Z,59.9
2017-10-20T00:26:21.283Z,60.1
2017-10-20T00:27:22.786Z,60.1
2017-10-20T00:28:24.948Z,60.2
2017-10-20T00:29:27.112Z,60.2
2017-10-20T00:30:28.941Z,60.1
2017-10-20T00:31:30.764Z,60.1
2017-10-20T00:32:32.559Z,60.2
2017-10-20T00:33:34.014Z,60.1
2017-10-20T00:34:36.178Z,60.2
2017-10-20T00:35:37.997Z,60.2
2017-10-20T00:36:39.110Z,59.8
2017-10-20T00:37:40.933Z,60.1
2017-10-20T00:38:42.410Z,59.9
2017-10-20T00:39:44.574Z,59.9
2017-10-20T00:40:46.396Z,60
2017-10-20T00:41:48.221Z,59.8
2017-10-20T00:42:49.678Z,60.2
2017-10-20T00:43:51.503Z,60.2
2017-10-20T00:44:53.668Z,60.1
2017-10-20T00:45:55.834Z,60.1
2017-10-20T00:46:57.654Z,59.8
2017-10-20T00:47:59.819Z,60.1
2017-10-20T00:49:01.294Z,60.1
2017-10-20T00:50:03.461Z,60.2
2017-10-20T00:51:05.280Z,60.1
2017-10-20T00:52:07.079Z,60.2
2017-10-20T00:53:08.894Z,60.1
2017-10-20T00:54:10.343Z,59.8
2017-10-20T00:55:12.505Z,59.9
2017-10-20T00:56:14.327Z,59.7
2017-10-20T00:57:16.149Z,60.1
2017-10-20T00:58:18.313Z,60.1
2017-10-20T00:59:20.134Z,60.2
2017-10-20T01:00:22.303Z,59.9
2017-10-20T01:01:24.471Z,59.9
2017-10-20T01:02:26.632Z,59.8
2017-10-20T01:03:28.434Z,59.9
2017-10-20T01:04:30.234Z,59.9
2017-10-20T01:05:32.401Z,59.8
2017-10-20T01:06:34.221Z,60.2
2017-10-20T01:07:36.042Z,59.8
2017-10-20T01:08:37.509Z,59.7
2017-10-20T01:09:39.311Z,59.9
2017-10-20T01:10:40.775Z,59.7
2017-10-20T01:11:42.947Z,60
2017-10-20T01:12:44.396Z,60
2017-10-20T01:13:46.559Z,59.9
2017-10-20T01:14:48.015Z,59.8
2017-10-20T01:15:50.177Z,59.9
2017-10-20T01:16:52.342Z,60.1
2017-10-20T01:17:53.818Z,59.6
2017-10-20T01:18:55.272Z,60.1
2017-10-20T01:19:57.468Z,59.9
2017-10-20T01:20:59.633Z,59.7
2017-10-20T01:22:01.455Z,59.9
2017-10-20T01:23:03.252Z,60
2017-10-20T01:24:04.709Z,60
2017-10-20T01:25:06.891Z,59.8
2017-10-20T01:26:08.713Z,60
2017-10-20T01:27:10.878Z,59.9
2017-10-20T01:28:12.697Z,60
2017-10-20T01:29:14.530Z,59.9
2017-10-20T01:30:16.349Z,59.9
2017-10-20T01:31:18.541Z,59.8
2017-10-20T01:32:20.707Z,59.9
2017-10-20T01:33:22.554Z,59.7
2017-10-20T01:34:24.712Z,59.8
2017-10-20T01:35:26.533Z,60
2017-10-20T01:36:28.334Z,59.9
2017-10-20T01:37:29.797Z,60
2017-10-20T01:38:31.616Z,60
2017-10-20T01:39:33.093Z,60
2017-10-20T01:40:35.257Z,60
2017-10-20T01:41:37.425Z,60
2017-10-20T01:42:39.591Z,60
2017-10-20T01:43:41.410Z,59.9
2017-10-20T01:44:43.211Z,59.9
2017-10-20T01:45:45.030Z,59.9
2017-10-20T01:46:46.849Z,59.7
2017-10-20T01:47:47.957Z,59.8
2017-10-20T01:48:49.755Z,59.8
2017-10-20T01:49:51.921Z,59.6
2017-10-20T01:50:53.741Z,59.6
2017-10-20T01:51:55.557Z,59.7
2017-10-20T01:52:57.377Z,59.6
2017-10-20T01:53:59.538Z,59.7
2017-10-20T01:55:01.022Z,59.6
2017-10-20T01:56:03.178Z,59.6
2017-10-20T01:57:04.634Z,59.7
2017-10-20T01:58:06.796Z,60
2017-10-20T01:59:08.617Z,59.7
2017-10-20T02:00:10.795Z,59.7
2017-10-20T02:01:12.958Z,59.7
2017-10-20T02:02:14.414Z,59.9
2017-10-20T02:03:16.236Z,59.7
2017-10-20T02:04:18.059Z,59.6
2017-10-20T02:05:20.231Z,59.6
2017-10-20T02:06:22.397Z,59.8
2017-10-20T02:07:24.219Z,59.6
2017-10-20T02:08:26.385Z,59.7
2017-10-20T02:09:28.549Z,59.7
2017-10-20T02:10:30.369Z,59.7
2017-10-20T02:11:32.537Z,59.6
2017-10-20T02:12:34.359Z,59.7
2017-10-20T02:13:35.814Z,59.7
2017-10-20T02:14:37.648Z,59.6
2017-10-20T02:15:39.815Z,59.7
2017-10-20T02:16:41.634Z,59.6
2017-10-20T02:17:43.092Z,59.6
2017-10-20T02:18:44.546Z,59.9
2017-10-20T02:19:46.710Z,59.7
2017-10-20T02:20:48.166Z,59.6
2017-10-20T02:21:50.003Z,59.7
2017-10-20T02:22:52.166Z,59.7
2017-10-20T02:23:54.332Z,59.7
2017-10-20T02:24:55.787Z,59.6
2017-10-20T02:25:57.614Z,59.7
2017-10-20T02:26:59.090Z,59.7
2017-10-20T02:28:00.919Z,59.7
2017-10-20T02:29:02.733Z,59.6
2017-10-20T02:30:04.554Z,59.7
2017-10-20T02:31:06.377Z,59.6
2017-10-20T02:32:08.197Z,59.7
2017-10-20T02:33:10.020Z,59.8
2017-10-20T02:34:11.842Z,59.6
2017-10-20T02:35:13.664Z,59.7
2017-10-20T02:36:15.830Z,59.8
2017-10-20T02:37:17.652Z,59.7
2017-10-20T02:38:19.451Z,59.6
2017-10-20T02:39:21.617Z,59.9
2017-10-20T02:40:23.438Z,59.8
2017-10-20T02:41:25.259Z,59.7
2017-10-20T02:42:27.077Z,59.8
2017-10-20T02:43:28.876Z,59.7
2017-10-20T02:44:30.698Z,59.8
2017-10-20T02:45:32.862Z,59.8
2017-10-20T02:46:35.030Z,59.5
2017-10-20T02:47:36.850Z,59.6
2017-10-20T02:48:39.014Z,59.8
2017-10-20T02:49:40.832Z,59.8
2017-10-20T02:50:42.286Z,59.5
2017-10-20T02:51:44.107Z,59.6
2017-10-20T02:52:46.285Z,59.6
2017-10-20T02:53:47.738Z,59.5
2017-10-20T02:54:49.902Z,59.6
2017-10-20T02:55:52.063Z,59.6
2017-10-20T02:56:54.228Z,59.8
2017-10-20T02:57:56.026Z,59.8
2017-10-20T02:58:58.191Z,59.6
2017-10-20T02:59:59.665Z,59.8
2017-10-20T03:01:01.144Z,59.6
2017-10-20T03:02:02.599Z,59.6
2017-10-20T03:03:04.785Z,59.5
2017-10-20T03:04:06.941Z,59.5
2017-10-20T03:05:09.120Z,59.6
2017-10-20T03:06:10.941Z,59.6
2017-10-20T03:07:12.742Z,59.9
2017-10-20T03:08:14.561Z,59.6
2017-10-20T03:09:16.016Z,59.6
2017-10-20T03:10:17.855Z,59.6
2017-10-20T03:11:20.018Z,59.5
2017-10-20T03:12:21.477Z,59.6
2017-10-20T03:13:23.291Z,59.7
2017-10-20T03:14:24.746Z,59.6
2017-10-20T03:15:26.544Z,59.6
2017-10-20T03:16:28.342Z,59.7
2017-10-20T03:17:30.162Z,59.6
2017-10-20T03:18:31.982Z,59.7
2017-10-20T03:19:33.805Z,59.6
2017-10-20T03:20:34.916Z,59.5
2017-10-20T03:21:36.719Z,59.6
2017-10-20T03:22:38.517Z,59.6
2017-10-20T03:23:40.337Z,59.5
2017-10-20T03:24:42.500Z,59.6
2017-10-20T03:25:44.663Z,59.6
2017-10-20T03:26:46.832Z,59.6
2017-10-20T03:27:48.653Z,59.9
2017-10-20T03:28:50.473Z,59.7
2017-10-20T03:29:52.637Z,59.7
2017-10-20T03:30:53.776Z,59.6
2017-10-20T03:31:55.940Z,59.7
2017-10-20T03:32:57.393Z,59.7
2017-10-20T03:33:59.213Z,59.6
2017-10-20T03:35:01.382Z,59.6
2017-10-20T03:36:03.199Z,59.6
2017-10-20T03:37:05.021Z,59.7
2017-10-20T03:38:07.188Z,59.7
2017-10-20T03:39:08.642Z,59.6
2017-10-20T03:40:10.464Z,59.6
2017-10-20T03:41:12.622Z,59.6
2017-10-20T03:42:14.079Z,59.6
2017-10-20T03:43:15.535Z,59.6
2017-10-20T03:44:17.353Z,59.6
2017-10-20T03:45:19.516Z,59.6
2017-10-20T03:46:21.679Z,59.6
2017-10-20T03:47:23.479Z,59.6
2017-10-20T03:48:24.949Z,59.7
2017-10-20T03:49:26.759Z,59.6
2017-10-20T03:50:28.579Z,59.7
2017-10-20T03:51:30.739Z,59.7
2017-10-20T03:52:32.914Z,59.5
2017-10-20T03:53:34.369Z,59.6
2017-10-20T03:54:36.537Z,59.7
2017-10-20T03:55:38.360Z,59.9
2017-10-20T03:56:40.521Z,59.7
2017-10-20T03:57:42.326Z,59.5
2017-10-20T03:58:44.488Z,59.6
2017-10-20T03:59:46.313Z,59.6
2017-10-20T04:00:48.481Z,59.7
2017-10-20T04:01:50.639Z,59.8
2017-10-20T04:02:52.438Z,59.7
2017-10-20T04:03:54.602Z,59.6
2017-10-20T04:04:56.060Z,59.6
2017-10-20T04:05:58.226Z,59.6
2017-10-20T04:06:59.689Z,59.6
2017-10-20T04:08:01.853Z,59.7
2017-10-20T04:09:03.676Z,59.6
2017-10-20T04:10:05.473Z,59.6
2017-10-20T04:11:06.941Z,59.7
2017-10-20T04:12:09.105Z,59.6
2017-10-20T04:13:11.271Z,59.6
2017-10-20T04:14:13.089Z,59.7
2017-10-20T04:15:14.909Z,59.6
2017-10-20T04:16:16.734Z,59.7
2017-10-20T04:17:18.895Z,59.5
2017-10-20T04:18:21.060Z,59.6
2017-10-20T04:19:22.536Z,59.6
2017-10-20T04:20:24.335Z,59.5
2017-10-20T04:21:26.155Z,59.6
2017-10-20T04:22:28.319Z,59.7
2017-10-20T04:23:30.138Z,59.6
2017-10-20T04:24:31.959Z,59.8
2017-10-20T04:25:34.131Z,59.8
2017-10-20T04:26:35.944Z,59.9
2017-10-20T04:27:38.107Z,59.5
2017-10-20T04:28:39.904Z,59.9
2017-10-20T04:29:42.071Z,59.8
2017-10-20T04:30:43.549Z,59.8
2017-10-20T04:31:45.710Z,59.9
2017-10-20T04:32:47.508Z,59.2
2017-10-20T04:33:49.331Z,59.8
2017-10-20T04:34:51.510Z,59.6
2017-10-20T04:35:53.332Z,59.4
2017-10-20T04:36:55.134Z,59.4
2017-10-20T04:37:57.300Z,59.4
2017-10-20T04:38:59.117Z,59.2
2017-10-20T04:40:00.922Z,59.7
2017-10-20T04:41:02.399Z,59.9
2017-10-20T04:42:03.854Z,59.6
2017-10-20T04:43:05.675Z,59.3
2017-10-20T04:44:07.496Z,59.6
2017-10-20T04:45:09.337Z,59.4
2017-10-20T04:46:10.815Z,59.5
2017-10-20T04:47:12.634Z,59.8
2017-10-20T04:48:14.457Z,59.6
2017-10-20T04:49:16.278Z,59.6
2017-10-20T04:50:18.100Z,59.6
2017-10-20T04:51:19.556Z,59.3
2017-10-20T04:52:21.008Z,59.6
2017-10-20T04:53:22.821Z,59.6
2017-10-20T04:54:24.999Z,59.5
2017-10-20T04:55:26.797Z,59.5
2017-10-20T04:56:28.984Z,59.7
2017-10-20T04:57:31.144Z,59.5
2017-10-20T04:58:33.326Z,59.4
2017-10-20T04:59:34.784Z,59.6
2017-10-20T05:00:36.949Z,59.7
2017-10-20T05:01:38.770Z,59.6
2017-10-20T05:02:40.932Z,59.3
2017-10-20T05:03:42.409Z,59.4
2017-10-20T05:04:44.230Z,59.5
2017-10-20T05:05:46.030Z,59.4
2017-10-20T05:06:47.851Z,59.5
2017-10-20T05:07:50.017Z,59.5
2017-10-20T05:08:52.181Z,59.4
2017-10-20T05:09:53.668Z,59.6
2017-10-20T05:10:55.144Z,59.3
2017-10-20T05:11:56.598Z,59.4
2017-10-20T05:12:58.398Z,59.3
2017-10-20T05:13:59.854Z,59.3
2017-10-20T05:15:01.309Z,59.3
2017-10-20T05:16:02.764Z,59.2
2017-10-20T05:17:04.928Z,59.3
2017-10-20T05:18:06.385Z,59.4
2017-10-20T05:19:08.208Z,59.3
2017-10-20T05:20:10.004Z,59.3
2017-10-20T05:21:12.169Z,59.4
2017-10-20T05:22:13.988Z,59.3
2017-10-20T05:23:15.812Z,59.3
2017-10-20T05:24:17.640Z,59.1
2017-10-20T05:25:19.443Z,59.4
2017-10-20T05:26:21.242Z,59.1
2017-10-20T05:27:23.408Z,59.1
2017-10-20T05:28:25.592Z,58.9
2017-10-20T05:29:27.759Z,58.9
2017-10-20T05:30:29.213Z,59
2017-10-20T05:31:31.036Z,58.9
2017-10-20T05:32:32.833Z,58.8
2017-10-20T05:33:35.000Z,58.8
2017-10-20T05:34:37.162Z,58.8
2017-10-20T05:35:38.639Z,59.1
2017-10-20T05:36:40.802Z,58.9
2017-10-20T05:37:42.620Z,59
2017-10-20T05:38:44.088Z,59.2
2017-10-20T05:39:45.542Z,58.9
2017-10-20T05:40:47.704Z,59.1
2017-10-20T05:41:49.874Z,59
2017-10-20T05:42:51.325Z,59.1
2017-10-20T05:43:53.488Z,59
2017-10-20T05:44:54.949Z,58.8
2017-10-20T05:45:56.767Z,58.8
2017-10-20T05:46:57.880Z,58.8
2017-10-20T05:47:59.354Z,58.9
2017-10-20T05:49:01.234Z,58.9
2017-10-20T05:50:03.082Z,58.8
2017-10-20T05:51:04.549Z,58.7
2017-10-20T05:52:06.716Z,58.7
2017-10-20T05:53:08.532Z,58.7
2017-10-20T05:54:10.354Z,58.7
2017-10-20T05:55:12.176Z,58.8
2017-10-20T05:56:13.282Z,59.3
2017-10-20T05:57:14.400Z,58.9
2017-10-20T05:58:16.569Z,59.2
2017-10-20T05:59:18.758Z,58.8
2017-10-20T06:00:20.583Z,59.1
2017-10-20T06:01:22.151Z,58.8
2017-10-20T06:02:23.956Z,59.3
2017-10-20T06:03:25.781Z,58.8
2017-10-20T06:04:27.610Z,59
2017-10-20T06:05:28.730Z,59.1
2017-10-20T06:06:29.511Z,59
2017-10-20T06:07:30.993Z,59
2017-10-20T06:08:32.480Z,59
2017-10-20T06:09:34.303Z,59.1
2017-10-20T06:10:36.475Z,59.3
2017-10-20T06:11:38.305Z,59.3
2017-10-20T06:12:39.424Z,59.3
2017-10-20T06:13:40.887Z,59
2017-10-20T06:14:42.722Z,59.3
2017-10-20T06:15:44.205Z,59.3
2017-10-20T06:16:46.026Z,59.5
2017-10-20T06:17:47.502Z,59.3
2017-10-20T06:18:49.670Z,59.3
2017-10-20T06:19:51.150Z,59.2
2017-10-20T06:20:52.631Z,59.5
2017-10-20T06:21:54.454Z,59.4
2017-10-20T06:22:56.631Z,59
2017-10-20T06:23:58.113Z,59.3
2017-10-20T06:24:59.245Z,59.3
2017-10-20T06:26:01.414Z,59.4
2017-10-20T06:27:02.879Z,59.4
2017-10-20T06:28:04.342Z,59.2
2017-10-20T06:29:06.162Z,59.2
2017-10-20T06:30:07.971Z,59.3
2017-10-20T06:31:09.429Z,59.2
2017-10-20T06:32:11.262Z,59.3
2017-10-20T06:33:13.063Z,59.3
2017-10-20T06:34:15.227Z,59.4
2017-10-20T06:35:17.395Z,59.1
2017-10-20T06:36:18.506Z,59.4
2017-10-20T06:37:20.330Z,59.5
2017-10-20T06:38:22.155Z,59.3
2017-10-20T06:39:24.362Z,59.6
2017-10-20T06:40:26.172Z,59.3
2017-10-20T06:41:27.995Z,59.4
2017-10-20T06:42:29.824Z,59.3
2017-10-20T06:43:31.990Z,59.3
2017-10-20T06:44:34.160Z,59.2
2017-10-20T06:45:36.405Z,59.3
2017-10-20T06:46:38.306Z,59.7
2017-10-20T06:47:40.476Z,59.5
2017-10-20T06:48:41.939Z,59.5
2017-10-20T06:49:44.113Z,59.5
2017-10-20T06:50:45.939Z,59.4
2017-10-20T06:51:48.104Z,59.4
2017-10-20T06:52:49.328Z,59.4
2017-10-20T06:53:50.909Z,59.3
2017-10-20T06:54:52.865Z,59.3
2017-10-20T06:55:54.470Z,59.3
2017-10-20T06:56:55.957Z,59.5
2017-10-20T06:57:57.774Z,59.5
2017-10-20T06:58:59.576Z,59.6
2017-10-20T07:00:01.070Z,59.4
2017-10-20T07:01:02.546Z,59.4
2017-10-20T07:02:04.055Z,59.5
2017-10-20T07:03:05.898Z,59.5
2017-10-20T07:04:07.726Z,59.4
2017-10-20T07:05:09.898Z,59.3
2017-10-20T07:06:11.371Z,59.5
2017-10-20T07:07:13.246Z,59.6
2017-10-20T07:08:15.075Z,59.6
2017-10-20T07:09:17.245Z,59.5
2017-10-20T07:10:18.727Z,59.6
2017-10-20T07:11:20.529Z,59.7
2017-10-20T07:12:22.695Z,59.5
2017-10-20T07:13:24.522Z,59.6
2017-10-20T07:14:26.689Z,59.7
2017-10-20T07:15:28.173Z,59.5
2017-10-20T07:16:29.637Z,59.6
2017-10-20T07:17:31.095Z,59.7
2017-10-20T07:18:32.898Z,59.7
2017-10-20T07:19:34.438Z,59.6
2017-10-20T07:20:35.922Z,59.6
2017-10-20T07:21:37.749Z,59.5
2017-10-20T07:22:39.921Z,59.6
2017-10-20T07:23:41.744Z,59.4
2017-10-20T07:24:43.911Z,59.6
2017-10-20T07:25:46.081Z,59.5
2017-10-20T07:26:48.250Z,59.6
2017-10-20T07:27:50.418Z,59.6
2017-10-20T07:28:52.223Z,59.6
2017-10-20T07:29:54.044Z,59.5
2017-10-20T07:30:55.843Z,59.5
2017-10-20T07:31:57.665Z,59.8
2017-10-20T07:32:59.123Z,59.9
2017-10-20T07:34:00.949Z,59.9
2017-10-20T07:35:03.115Z,60
2017-10-20T07:36:04.236Z,59.9
2017-10-20T07:37:06.413Z,59.8
2017-10-20T07:38:08.230Z,59.7
2017-10-20T07:39:10.398Z,59.7
2017-10-20T07:40:12.565Z,59.8
2017-10-20T07:41:14.047Z,59.8
2017-10-20T07:42:15.876Z,59.8
2017-10-20T07:43:17.021Z,59.8
2017-10-20T07:44:19.197Z,59.7
2017-10-20T07:45:21.403Z,59.7
2017-10-20T07:46:22.938Z,59.7
2017-10-20T07:47:25.107Z,59.7
2017-10-20T07:48:27.298Z,59.7
2017-10-20T07:49:28.760Z,59.9
2017-10-20T07:50:30.585Z,60
2017-10-20T07:51:32.411Z,60.1
2017-10-20T07:52:33.892Z,60
2017-10-20T07:53:35.762Z,60
2017-10-20T07:54:37.248Z,60
2017-10-20T07:55:39.140Z,60
2017-10-20T07:56:40.598Z,60
2017-10-20T07:57:42.426Z,60
2017-10-20T07:58:44.250Z,60
2017-10-20T07:59:46.421Z,60.1
2017-10-20T08:00:48.230Z,59.7
2017-10-20T08:01:50.060Z,60.1
2017-10-20T08:02:51.208Z,60
2017-10-20T08:03:52.687Z,60
2017-10-20T08:04:54.149Z,59.8
2017-10-20T08:05:55.286Z,59.8
2017-10-20T08:06:57.110Z,59.8
2017-10-20T08:07:58.927Z,59.8
2017-10-20T08:09:00.751Z,59.9
2017-10-20T08:10:02.231Z,59.9
2017-10-20T08:11:03.390Z,59.9
2017-10-20T08:12:05.607Z,60.1
2017-10-20T08:13:07.071Z,59.6
2017-10-20T08:14:08.892Z,59.7
2017-10-20T08:15:10.719Z,59.7
2017-10-20T08:16:12.524Z,59.6
2017-10-20T08:17:14.851Z,59.6
2017-10-20T08:18:17.028Z,59.7
2017-10-20T08:19:18.835Z,59.9
2017-10-20T08:20:20.299Z,60.1
2017-10-20T08:21:22.122Z,59.8
2017-10-20T08:22:24.297Z,60.1
2017-10-20T08:23:25.759Z,59.8
2017-10-20T08:24:27.344Z,59.7
2017-10-20T08:25:29.167Z,59.7
2017-10-20T08:26:31.339Z,59.9
2017-10-20T08:27:32.486Z,59.8
2017-10-20T08:28:34.290Z,60
2017-10-20T08:29:36.471Z,59.2
2017-10-20T08:30:37.934Z,60
2017-10-20T08:31:40.143Z,59.5
2017-10-20T08:32:41.628Z,59.5
2017-10-20T08:33:43.834Z,59.7
2017-10-20T08:34:45.787Z,59.4
2017-10-20T08:35:47.601Z,59.2
2017-10-20T08:36:49.084Z,59.5
2017-10-20T08:37:51.257Z,59.5
2017-10-20T08:38:53.096Z,59.6
2017-10-20T08:39:54.922Z,59.7
2017-10-20T08:40:56.752Z,59.6
2017-10-20T08:41:58.576Z,59.4
2017-10-20T08:43:00.036Z,59.6
2017-10-20T08:44:01.864Z,59.5
2017-10-20T08:45:03.673Z,59.5
2017-10-20T08:46:05.157Z,59.7
2017-10-20T08:47:05.935Z,59.5
2017-10-20T08:48:07.762Z,59.7
2017-10-20T08:49:09.928Z,59.7
2017-10-20T08:50:11.044Z,59.7
2017-10-20T08:51:12.846Z,59.6
2017-10-20T08:52:15.026Z,59.7
2017-10-20T08:53:17.186Z,59.4
2017-10-20T08:54:19.354Z,59.5
2017-10-20T08:55:21.178Z,59.5
2017-10-20T08:56:23.007Z,59.7
2017-10-20T08:57:24.827Z,59.4
2017-10-20T08:58:26.992Z,59.3
2017-10-20T08:59:28.476Z,59.5
2017-10-20T09:00:30.646Z,59.8
2017-10-20T09:01:32.108Z,59.6
2017-10-20T09:02:33.571Z,59.3
2017-10-20T09:03:35.738Z,59.3
2017-10-20T09:04:37.617Z,59.3
2017-10-20T09:05:39.785Z,59.3
2017-10-20T09:06:41.947Z,59.8
2017-10-20T09:07:43.081Z,59.4
2017-10-20T09:08:45.249Z,59.5
2017-10-20T09:09:47.074Z,59.4
2017-10-20T09:10:48.875Z,59.8
2017-10-20T09:11:50.359Z,59.7
2017-10-20T09:12:51.824Z,59.8
2017-10-20T09:13:52.929Z,59.5
2017-10-20T09:14:54.750Z,59.6
2017-10-20T09:15:56.215Z,59.5
2017-10-20T09:16:57.331Z,59.7
2017-10-20T09:17:59.152Z,59.7
2017-10-20T09:19:00.975Z,60
2017-10-20T09:20:02.774Z,60
2017-10-20T09:21:04.584Z,59.9
2017-10-20T09:22:06.061Z,60.1
2017-10-20T09:23:07.863Z,59.7
2017-10-20T09:24:09.693Z,59.8
2017-10-20T09:25:11.507Z,59.7
2017-10-20T09:26:13.736Z,59.7
2017-10-20T09:27:15.645Z,59.9
2017-10-20T09:28:17.128Z,59.7
2017-10-20T09:29:19.293Z,59.7
2017-10-20T09:30:21.094Z,59.8
2017-10-20T09:31:22.227Z,59.7
2017-10-20T09:32:24.389Z,59.7
2017-10-20T09:33:26.558Z,59.8
2017-10-20T09:34:28.015Z,59.8
2017-10-20T09:35:29.917Z,59.7
2017-10-20T09:36:31.744Z,59.7
2017-10-20T09:37:33.228Z,59.8
2017-10-20T09:38:34.711Z,59.8
2017-10-20T09:39:36.875Z,59.8
2017-10-20T09:40:39.045Z,59.8
2017-10-20T09:41:40.175Z,59.7
2017-10-20T09:42:42.019Z,59.7
2017-10-20T09:43:44.187Z,59.6
2017-10-20T09:44:46.007Z,59.8
2017-10-20T09:45:47.161Z,59.7
2017-10-20T09:46:48.623Z,59.9
2017-10-20T09:47:50.445Z,59.8
2017-10-20T09:48:52.611Z,59.7
2017-10-20T09:49:54.076Z,59.8
2017-10-20T09:50:56.246Z,60.1
2017-10-20T09:51:58.061Z,60.2
2017-10-20T09:53:00.250Z,60.2
2017-10-20T09:54:02.415Z,60
2017-10-20T09:55:04.213Z,60.1
2017-10-20T09:56:06.061Z,60.1
2017-10-20T09:57:07.211Z,60.3
2017-10-20T09:58:09.012Z,60.2
2017-10-20T09:59:10.851Z,60.3
2017-10-20T10:00:12.305Z,60
2017-10-20T10:01:14.134Z,60.2
2017-10-20T10:02:15.626Z,60.2
2017-10-20T10:03:17.791Z,60.2
2017-10-20T10:04:19.245Z,60.2
2017-10-20T10:05:21.069Z,60.3
2017-10-20T10:06:22.874Z,60.3
2017-10-20T10:07:25.036Z,60.4
2017-10-20T10:08:27.209Z,60.3
2017-10-20T10:09:29.037Z,60.6
2017-10-20T10:10:31.213Z,60.3
2017-10-20T10:11:33.375Z,60.4
2017-10-20T10:12:35.206Z,60.3
2017-10-20T10:13:37.045Z,60.1
2017-10-20T10:14:39.226Z,60.3
2017-10-20T10:15:41.080Z,60.2
2017-10-20T10:16:42.881Z,60.2
2017-10-20T10:17:44.704Z,60.2
2017-10-20T10:18:46.537Z,60.2
2017-10-20T10:19:48.713Z,60.2
2017-10-20T10:20:50.535Z,60.2
2017-10-20T10:21:52.013Z,60.2
2017-10-20T10:22:53.832Z,60.2
2017-10-20T10:23:55.312Z,60.2
2017-10-20T10:24:57.132Z,60.2
2017-10-20T10:25:59.300Z,60.2
2017-10-20T10:27:01.123Z,60.1
2017-10-20T10:28:02.938Z,60.2
2017-10-20T10:29:04.053Z,60.2
2017-10-20T10:30:05.531Z,60.2
2017-10-20T10:31:06.996Z,60.1
2017-10-20T10:32:09.167Z,60.1
2017-10-20T10:33:10.998Z,60.2
2017-10-20T10:34:12.483Z,60.3
2017-10-20T10:35:14.644Z,60
2017-10-20T10:36:16.102Z,60.2
2017-10-20T10:37:17.925Z,60.1
2017-10-20T10:38:20.095Z,60.1
2017-10-20T10:39:22.262Z,60
2017-10-20T10:40:24.090Z,60
2017-10-20T10:41:25.566Z,60
2017-10-20T10:42:27.392Z,60
2017-10-20T10:43:28.504Z,60
2017-10-20T10:44:30.696Z,60.2
2017-10-20T10:45:32.178Z,60.2
2017-10-20T10:46:34.001Z,60.2
2017-10-20T10:47:36.166Z,59.8
2017-10-20T10:48:37.987Z,60.2
2017-10-20T10:49:40.157Z,60.2
2017-10-20T10:50:41.980Z,60.1
2017-10-20T10:51:43.446Z,59.9
2017-10-20T10:52:45.607Z,60.2
2017-10-20T10:53:47.772Z,60.2
2017-10-20T10:54:49.601Z,59.8
2017-10-20T10:55:50.708Z,60.2
2017-10-20T10:56:52.537Z,59.9
2017-10-20T10:57:54.336Z,59.8
2017-10-20T10:58:56.530Z,60.2
2017-10-20T10:59:58.324Z,59.9
2017-10-20T11:00:59.486Z,59.9
2017-10-20T11:02:01.660Z,59.8
2017-10-20T11:03:03.482Z,59.9
2017-10-20T11:04:05.650Z,59.8
2017-10-20T11:05:07.473Z,60
2017-10-20T11:06:08.952Z,59.7
2017-10-20T11:07:10.431Z,59.7
2017-10-20T11:08:11.911Z,59.9
2017-10-20T11:09:14.081Z,59.8
2017-10-20T11:10:15.560Z,59.8
2017-10-20T11:11:17.730Z,60
2017-10-20T11:12:19.894Z,60.1
2017-10-20T11:13:21.715Z,59.7
2017-10-20T11:14:23.174Z,59.8
2017-10-20T11:15:24.990Z,60
2017-10-20T11:16:26.468Z,59.9
2017-10-20T11:17:27.932Z,59.7
2017-10-20T11:18:30.105Z,60
2017-10-20T11:19:31.932Z,60.1
2017-10-20T11:20:33.735Z,60
2017-10-20T11:21:35.558Z,59.8
2017-10-20T11:22:37.011Z,59.8
2017-10-20T11:23:39.176Z,59.9
2017-10-20T11:24:40.999Z,59.6
2017-10-20T11:25:43.167Z,59.7
2017-10-20T11:26:44.995Z,59.8
2017-10-20T11:27:46.815Z,60
2017-10-20T11:28:48.981Z,59.8
2017-10-20T11:29:51.176Z,59.9
2017-10-20T11:30:52.971Z,59.9
2017-10-20T11:31:54.794Z,60
2017-10-20T11:32:56.620Z,59.9
2017-10-20T11:33:58.789Z,59.9
2017-10-20T11:35:00.265Z,59.9
2017-10-20T11:36:02.445Z,59.9
2017-10-20T11:37:04.262Z,59.8
2017-10-20T11:38:06.089Z,59.5
2017-10-20T11:39:07.220Z,59.9
2017-10-20T11:40:09.380Z,59.9
2017-10-20T11:41:11.199Z,59.9
2017-10-20T11:42:12.687Z,60
2017-10-20T11:43:14.508Z,59.5
2017-10-20T11:44:15.988Z,59.7
2017-10-20T11:45:17.814Z,59.5
2017-10-20T11:46:19.982Z,59.6
2017-10-20T11:47:21.807Z,59.5
2017-10-20T11:48:23.628Z,59.6
2017-10-20T11:49:25.796Z,59.3
2017-10-20T11:50:27.257Z,59.4
2017-10-20T11:51:29.077Z,59.1
2017-10-20T11:52:30.554Z,59
2017-10-20T11:53:32.378Z,59.1
2017-10-20T11:54:34.201Z,59
2017-10-20T11:55:36.368Z,59.1
2017-10-20T11:56:37.488Z,59.2
2017-10-20T11:57:39.311Z,59.1
2017-10-20T11:58:41.149Z,59
2017-10-20T11:59:42.970Z,59.2
2017-10-20T12:00:44.771Z,59
2017-10-20T12:01:46.233Z,58.9
2017-10-20T12:02:48.057Z,59.1
2017-10-20T12:03:49.865Z,58.4
2017-10-20T12:04:51.667Z,58.4
2017-10-20T12:05:52.781Z,58.6
2017-10-20T12:06:54.283Z,58.9
2017-10-20T12:07:55.413Z,58.6
2017-10-20T12:08:57.578Z,58.5
2017-10-20T12:09:59.060Z,58.4
2017-10-20T12:11:01.223Z,58.3
2017-10-20T12:12:03.391Z,58.6
2017-10-20T12:13:04.872Z,58.3
2017-10-20T12:14:07.046Z,58
2017-10-20T12:15:09.213Z,58.3
2017-10-20T12:16:10.685Z,58.1
2017-10-20T12:17:12.526Z,58
2017-10-20T12:18:13.982Z,58
2017-10-20T12:19:16.166Z,57.9
2017-10-20T12:20:17.986Z,57.8
2017-10-20T12:21:20.153Z,57.8
2017-10-20T12:22:21.979Z,57.7
2017-10-20T12:23:23.800Z,57.8
2017-10-20T12:24:25.624Z,57.8
2017-10-20T12:25:27.448Z,58.2
2017-10-20T12:26:29.269Z,57.9
2017-10-20T12:27:31.088Z,57.9
2017-10-20T12:28:32.913Z,58.1
2017-10-20T12:29:34.388Z,57.9
2017-10-20T12:30:36.213Z,58.2
2017-10-20T12:31:38.429Z,58
2017-10-20T12:32:39.886Z,58
2017-10-20T12:33:41.362Z,57.9
2017-10-20T12:34:43.188Z,58.1
2017-10-20T12:35:45.362Z,58
2017-10-20T12:36:47.182Z,57.9
2017-10-20T12:37:49.006Z,58.1
2017-10-20T12:38:51.170Z,58.1
2017-10-20T12:39:52.305Z,58.1
2017-10-20T12:40:54.471Z,58
2017-10-20T12:41:56.636Z,58
2017-10-20T12:42:58.802Z,57.9
2017-10-20T12:44:00.972Z,57.6
2017-10-20T12:45:03.141Z,57.7
2017-10-20T12:46:04.598Z,57.7
2017-10-20T12:47:06.428Z,57.9
2017-10-20T12:48:08.598Z,57.6
2017-10-20T12:49:10.764Z,57.8
2017-10-20T12:50:12.936Z,57.9
2017-10-20T12:51:14.762Z,57.8
2017-10-20T12:52:16.930Z,57.8
2017-10-20T12:53:19.098Z,57.9
2017-10-20T12:54:20.918Z,57.7
2017-10-20T12:55:23.110Z,57.7
2017-10-20T12:56:25.283Z,57.8
2017-10-20T12:57:27.077Z,57.4
2017-10-20T12:58:28.906Z,57.3
2017-10-20T12:59:30.039Z,57.5
2017-10-20T13:00:32.208Z,57.3
2017-10-20T13:01:34.372Z,57.4
2017-10-20T13:02:36.198Z,57.4
2017-10-20T13:03:37.655Z,57.3
2017-10-20T13:04:39.134Z,57.5
2017-10-20T13:05:41.302Z,57.3
2017-10-20T13:06:42.778Z,57.3
2017-10-20T13:07:44.950Z,57.3
2017-10-20T13:08:46.778Z,57.4
2017-10-20T13:09:48.938Z,57.4
2017-10-20T13:10:50.742Z,57.4
2017-10-20T13:11:52.909Z,57.6
2017-10-20T13:12:54.742Z,57.4
2017-10-20T13:13:56.909Z,57.4
2017-10-20T13:14:58.712Z,57.5
2017-10-20T13:16:00.245Z,57.4
2017-10-20T13:17:02.411Z,57.6
2017-10-20T13:18:03.526Z,57.4
2017-10-20T13:19:05.692Z,57.1
2017-10-20T13:20:07.515Z,57.1
2017-10-20T13:21:09.682Z,57.1
2017-10-20T13:22:10.794Z,57
2017-10-20T13:23:12.612Z,56.9
2017-10-20T13:24:14.087Z,56.9
2017-10-20T13:25:15.559Z,56.9
2017-10-20T13:26:17.041Z,56.9
2017-10-20T13:27:18.846Z,56.9
2017-10-20T13:28:20.672Z,57.3
2017-10-20T13:29:22.169Z,56.9
2017-10-20T13:30:23.639Z,56.5
2017-10-20T13:31:25.459Z,56.6
2017-10-20T13:32:27.260Z,56.8
2017-10-20T13:33:29.065Z,56.5
2017-10-20T13:34:30.543Z,56.5
2017-10-20T13:35:32.714Z,56.5
2017-10-20T13:36:34.640Z,56.5
2017-10-20T13:37:36.464Z,56.6
2017-10-20T13:38:38.632Z,56.8
2017-10-20T13:39:40.809Z,56.6
2017-10-20T13:40:42.272Z,56.7
2017-10-20T13:41:43.388Z,56.6
2017-10-20T13:42:44.867Z,56.7
2017-10-20T13:43:47.037Z,56.6
2017-10-20T13:44:48.867Z,56.7
2017-10-20T13:45:50.675Z,56.6
2017-10-20T13:46:52.504Z,56.7
2017-10-20T13:47:54.327Z,56.7